Time;durP1;ratioP1;P1;durP2;ratioP2;P2;SDS_P1;SDS_P2;PMS_P1;PMS_P2;Temp;Humidity;BMP_temperature;BMP_pressure;BME280_temperature;BME280_humidity;BME280_pressure;Samples;Min_cycle;Max_cycle;Signal;HPM_P1;HPM_P2
2023/08/02 00:01:02;;;;;;;1999.90;999.90;;;15.50;99.90;;;;;;5041370;28;20045;-68
2023/08/02 00:03:27;;;;;;;1999.90;999.90;;;15.50;99.90;;;;;;5046039;28;20041;-69
2023/08/02 00:05:58;;;;;;;1999.90;999.90;;;15.50;99.90;;;;;;5034703;28;20094;-68
2023/08/02 00:08:24;;;;;;;1999.90;999.90;;;15.50;99.90;;;;;;5034671;28;20467;-68
2023/08/02 00:10:51;;;;;;;1999.90;999.90;;;15.50;99.90;;;;;;5053580;28;20383;-68
2023/08/02 00:13:17;;;;;;;1999.90;999.90;;;15.50;99.90;;;;;;5043085;28;20495;-70
2023/08/02 00:15:43;;;;;;;1999.90;999.90;;;15.50;99.90;;;;;;5031238;28;20067;-68
2023/08/02 00:18:09;;;;;;;1999.90;999.90;;;15.50;99.90;;;;;;5037121;28;20041;-68
2023/08/02 00:20:37;;;;;;;1999.90;999.90;;;15.50;99.90;;;;;;5042744;28;20037;-68
2023/08/02 00:23:03;;;;;;;1999.90;999.90;;;15.50;99.90;;;;;;5038194;28;20500;-68
2023/08/02 00:25:29;;;;;;;1999.90;999.90;;;15.50;99.90;;;;;;5041566;28;20057;-68
2023/08/02 00:27:55;;;;;;;1999.90;999.90;;;15.50;99.90;;;;;;5051671;28;20535;-68
2023/08/02 00:30:20;;;;;;;1999.90;999.90;;;15.50;99.90;;;;;;5048992;28;20073;-68
2023/08/02 00:32:47;;;;;;;1999.90;999.90;;;15.50;99.90;;;;;;5048004;28;20067;-68
2023/08/02 00:35:13;;;;;;;1999.90;999.90;;;15.50;99.90;;;;;;5041111;28;20044;-68
2023/08/02 00:37:40;;;;;;;1999.90;999.90;;;15.50;99.90;;;;;;5040237;28;20044;-69
2023/08/02 00:40:06;;;;;;;1999.90;999.90;;;15.50;99.90;;;;;;5045981;28;20432;-68
2023/08/02 00:42:31;;;;;;;1999.90;999.90;;;15.50;99.90;;;;;;5050394;28;20033;-68
2023/08/02 00:44:57;;;;;;;1999.90;999.90;;;15.50;99.90;;;;;;5019458;28;20106;-68
2023/08/02 00:47:24;;;;;;;1999.90;999.90;;;15.50;99.90;;;;;;5047509;28;20543;-68
2023/08/02 00:49:50;;;;;;;1999.90;999.90;;;15.50;99.90;;;;;;5019253;28;20370;-68
2023/08/02 00:52:16;;;;;;;1999.90;999.90;;;15.50;99.90;;;;;;5050385;28;20040;-68
2023/08/02 00:54:42;;;;;;;1999.90;999.90;;;15.50;99.90;;;;;;5048356;28;20116;-68
2023/08/02 00:57:10;;;;;;;1999.90;999.90;;;15.50;99.90;;;;;;5045397;28;20042;-68
2023/08/02 00:59:38;;;;;;;1999.90;999.90;;;15.50;99.90;;;;;;5035431;28;20033;-68
2023/08/02 01:02:06;;;;;;;1999.90;999.90;;;15.50;99.90;;;;;;5048213;28;20049;-68
2023/08/02 01:04:35;;;;;;;1999.90;999.90;;;15.50;99.90;;;;;;5023698;28;20485;-68
2023/08/02 01:07:28;;;;;;;1999.90;999.90;;;15.50;99.90;;;;;;5049312;28;20060;-68
2023/08/02 01:10:15;;;;;;;1999.90;999.90;;;15.50;99.90;;;;;;5049855;28;20041;-68
2023/08/02 01:12:45;;;;;;;1999.90;999.90;;;15.50;99.90;;;;;;5035414;28;20045;-68
2023/08/02 01:15:14;;;;;;;1999.90;999.90;;;15.50;99.90;;;;;;5043647;28;20081;-68
2023/08/02 01:17:41;;;;;;;1999.90;999.90;;;15.50;99.90;;;;;;5049377;28;20068;-68
2023/08/02 01:20:08;;;;;;;1999.90;999.90;;;15.50;99.90;;;;;;5041223;28;20041;-68
2023/08/02 01:22:34;;;;;;;1999.90;999.90;;;15.50;99.90;;;;;;5040721;28;20346;-68
2023/08/02 01:25:00;;;;;;;1999.90;999.90;;;15.50;99.90;;;;;;5044984;28;20037;-68
2023/08/02 01:27:40;;;;;;;1999.90;999.90;;;15.50;99.90;;;;;;5031988;28;20052;-68
2023/08/02 01:30:10;;;;;;;1999.90;999.90;;;15.50;99.90;;;;;;5041210;28;20108;-68
2023/08/02 01:32:37;;;;;;;1999.90;999.90;;;15.40;99.90;;;;;;5048834;28;20366;-68
2023/08/02 01:35:03;;;;;;;1999.90;999.90;;;15.40;99.90;;;;;;5049366;28;20045;-68
2023/08/02 01:37:31;;;;;;;1999.90;999.90;;;15.40;99.90;;;;;;5043857;28;20050;-69
2023/08/02 01:39:57;;;;;;;1999.90;999.90;;;15.40;99.90;;;;;;5049454;28;20049;-68
2023/08/02 01:42:22;;;;;;;1999.90;999.90;;;15.40;99.90;;;;;;5043594;28;20619;-68
2023/08/02 01:44:48;;;;;;;1999.90;999.90;;;15.40;99.90;;;;;;5037429;28;20403;-69
2023/08/02 01:47:15;;;;;;;1999.90;999.90;;;15.40;99.90;;;;;;5046739;28;20052;-68
2023/08/02 01:49:41;;;;;;;1999.90;999.90;;;15.40;99.90;;;;;;5053564;28;20469;-68
2023/08/02 01:52:07;;;;;;;1999.90;999.90;;;15.40;99.90;;;;;;5042712;28;20033;-68
2023/08/02 01:54:32;;;;;;;1999.90;999.90;;;15.40;99.90;;;;;;5048953;28;20037;-68
2023/08/02 01:56:58;;;;;;;1999.90;999.90;;;15.40;99.90;;;;;;5033401;28;20227;-68
2023/08/02 01:59:24;;;;;;;1999.90;999.90;;;15.40;99.90;;;;;;5044921;28;20498;-68
2023/08/02 02:01:49;;;;;;;1999.90;999.90;;;15.40;99.90;;;;;;5045678;28;20040;-68
2023/08/02 02:04:15;;;;;;;1999.90;999.90;;;15.40;99.90;;;;;;5058899;28;20131;-69
2023/08/02 02:06:40;;;;;;;1999.90;999.90;;;15.40;99.90;;;;;;5044643;28;20064;-68
2023/08/02 02:09:06;;;;;;;1999.90;999.90;;;15.40;99.90;;;;;;5022318;28;20561;-68
2023/08/02 02:11:31;;;;;;;1999.90;999.90;;;15.40;99.90;;;;;;5043496;28;20073;-69
2023/08/02 02:13:57;;;;;;;1999.90;999.90;;;15.40;99.90;;;;;;5043459;28;20029;-69
2023/08/02 02:16:23;;;;;;;1999.90;999.90;;;15.40;99.90;;;;;;5037306;28;20046;-68
2023/08/02 02:18:48;;;;;;;1999.90;999.90;;;15.40;99.90;;;;;;5032061;28;20072;-68
2023/08/02 02:21:14;;;;;;;1999.90;999.90;;;15.40;99.90;;;;;;5048887;28;20566;-69
2023/08/02 02:23:39;;;;;;;1999.90;999.90;;;15.40;99.90;;;;;;5043656;28;20040;-68
2023/08/02 02:26:05;;;;;;;1999.90;999.90;;;15.40;99.90;;;;;;5046495;28;20075;-68
2023/08/02 02:28:31;;;;;;;1999.90;999.90;;;15.40;99.90;;;;;;5030028;28;20041;-68
2023/08/02 02:30:56;;;;;;;1999.90;999.90;;;15.40;99.90;;;;;;5048098;28;20056;-69
2023/08/02 02:33:22;;;;;;;1999.90;999.90;;;15.40;99.90;;;;;;5033390;28;20083;-68
2023/08/02 02:35:48;;;;;;;1999.90;999.90;;;15.40;99.90;;;;;;5047848;28;20037;-68
2023/08/02 02:38:13;;;;;;;1999.90;999.90;;;15.40;99.90;;;;;;5044750;28;20068;-69
2023/08/02 02:40:39;;;;;;;1999.90;999.90;;;15.40;99.90;;;;;;5047816;28;20064;-68
2023/08/02 02:43:05;;;;;;;1999.90;999.90;;;15.30;99.90;;;;;;5035232;28;20044;-68
2023/08/02 02:45:30;;;;;;;1999.90;999.90;;;15.40;99.90;;;;;;5046437;28;20458;-68
2023/08/02 02:47:56;;;;;;;1999.90;999.90;;;15.30;99.90;;;;;;5048024;28;20048;-68
2023/08/02 02:50:21;;;;;;;1999.90;999.90;;;15.40;99.90;;;;;;5040986;28;20112;-68
2023/08/02 02:52:47;;;;;;;1999.90;999.90;;;15.30;99.90;;;;;;5048028;28;20036;-69
2023/08/02 02:55:13;;;;;;;1999.90;999.90;;;15.30;99.90;;;;;;5048300;28;20036;-68
2023/08/02 02:57:38;;;;;;;1999.90;999.90;;;15.30;99.90;;;;;;5058992;28;20048;-68
2023/08/02 03:00:05;;;;;;;1999.90;999.90;;;15.30;99.90;;;;;;5047819;28;20041;-68
2023/08/02 03:02:31;;;;;;;1999.90;999.90;;;15.30;99.90;;;;;;5041427;28;20149;-68
2023/08/02 03:04:57;;;;;;;1999.90;999.90;;;15.30;99.90;;;;;;5032934;28;20142;-68
2023/08/02 03:07:22;;;;;;;1999.90;999.90;;;15.30;99.90;;;;;;5045071;28;20099;-68
2023/08/02 03:09:48;;;;;;;1999.90;999.90;;;15.30;99.90;;;;;;5047498;28;20040;-68
2023/08/02 03:12:13;;;;;;;1999.90;999.90;;;15.30;99.90;;;;;;5036568;28;20095;-68
2023/08/02 03:14:39;;;;;;;1999.90;999.90;;;15.30;99.90;;;;;;5042492;28;20032;-68
2023/08/02 03:17:05;;;;;;;1999.90;999.90;;;15.30;99.90;;;;;;5047051;28;20041;-68
2023/08/02 03:19:30;;;;;;;1999.90;999.90;;;15.20;99.90;;;;;;5040287;28;20119;-69
2023/08/02 03:21:56;;;;;;;1999.90;999.90;;;15.20;99.90;;;;;;5050322;28;20041;-69
2023/08/02 03:24:21;;;;;;;1999.90;999.90;;;15.20;99.90;;;;;;5056379;28;20052;-69
2023/08/02 03:26:47;;;;;;;1999.90;999.90;;;15.20;99.90;;;;;;5038415;28;20084;-68
2023/08/02 03:29:12;;;;;;;1999.90;999.90;;;15.20;99.90;;;;;;5049839;28;20083;-68
2023/08/02 03:31:38;;;;;;;1999.90;999.90;;;15.20;99.90;;;;;;5049679;28;20094;-68
2023/08/02 03:34:04;;;;;;;1999.90;999.90;;;15.20;99.90;;;;;;5043449;28;20053;-68
2023/08/02 03:36:29;;;;;;;1999.90;999.90;;;15.20;99.90;;;;;;5051366;28;20043;-68
2023/08/02 03:38:55;;;;;;;1999.90;999.90;;;15.20;99.90;;;;;;5051533;28;20060;-68
2023/08/02 03:41:20;;;;;;;1999.90;999.90;;;15.10;99.90;;;;;;5044826;28;20052;-68
2023/08/02 03:43:46;;;;;;;1999.90;999.90;;;15.10;99.90;;;;;;5049365;28;20397;-68
2023/08/02 03:46:12;;;;;;;1999.90;999.90;;;15.10;99.90;;;;;;5050216;28;20045;-69
2023/08/02 03:48:37;;;;;;;1999.90;999.90;;;15.10;99.90;;;;;;5033194;28;20541;-68
2023/08/02 03:51:03;;;;;;;1999.90;999.90;;;15.10;99.90;;;;;;5044722;28;20128;-68
2023/08/02 03:53:30;;;;;;;1999.90;999.90;;;15.10;99.90;;;;;;5036175;28;20397;-68
2023/08/02 03:55:55;;;;;;;1999.90;999.90;;;15.10;99.90;;;;;;5039123;28;20048;-69
2023/08/02 03:58:21;;;;;;;1999.90;999.90;;;15.10;99.90;;;;;;5027836;28;20045;-68
2023/08/02 04:00:47;;;;;;;1999.90;999.90;;;15.10;99.90;;;;;;5049070;28;20408;-68
2023/08/02 04:03:13;;;;;;;1999.90;999.90;;;15.20;99.90;;;;;;5041168;28;20378;-69
2023/08/02 04:05:38;;;;;;;1999.90;999.90;;;15.20;99.90;;;;;;5051129;28;20090;-68
2023/08/02 04:08:04;;;;;;;1999.90;999.90;;;15.20;99.90;;;;;;5044660;28;20059;-68
2023/08/02 04:10:36;;;;;;;1999.90;999.90;;;15.20;99.90;;;;;;5050866;28;20160;-68
2023/08/02 04:13:02;;;;;;;1999.90;999.90;;;15.20;99.90;;;;;;5049983;28;20051;-68
2023/08/02 04:15:31;;;;;;;1999.90;999.90;;;15.20;99.90;;;;;;5043145;28;20041;-68
2023/08/02 04:17:56;;;;;;;1999.90;999.90;;;15.20;99.90;;;;;;5051304;28;20055;-68
2023/08/02 04:20:22;;;;;;;1999.90;999.90;;;15.30;99.90;;;;;;5049525;28;20036;-68
2023/08/02 04:22:49;;;;;;;1999.90;999.90;;;15.30;99.90;;;;;;5030128;28;20045;-69
2023/08/02 04:25:15;;;;;;;1999.90;999.90;;;15.20;99.90;;;;;;5043383;28;20041;-68
2023/08/02 04:27:41;;;;;;;1999.90;999.90;;;15.20;99.90;;;;;;5050376;28;20087;-68
2023/08/02 04:30:07;;;;;;;1999.90;999.90;;;15.20;99.90;;;;;;5051172;28;20037;-68
2023/08/02 04:32:33;;;;;;;1999.90;999.90;;;15.20;99.90;;;;;;5037693;28;20034;-68
2023/08/02 04:34:58;;;;;;;1999.90;999.90;;;15.20;99.90;;;;;;5048160;28;20044;-68
2023/08/02 04:37:24;;;;;;;1999.90;999.90;;;15.20;99.90;;;;;;5042376;28;20041;-68
2023/08/02 04:39:50;;;;;;;1999.90;999.90;;;15.10;99.90;;;;;;5029386;28;20049;-68
2023/08/02 04:42:16;;;;;;;1999.90;999.90;;;15.10;99.90;;;;;;5040781;28;20468;-68
2023/08/02 04:44:41;;;;;;;1999.90;999.90;;;15.10;99.90;;;;;;5037422;28;20528;-68
2023/08/02 04:47:07;;;;;;;1999.90;999.90;;;15.10;99.90;;;;;;5049890;28;20124;-68
2023/08/02 04:49:33;;;;;;;1999.90;999.90;;;15.10;99.90;;;;;;5049911;28;20037;-68
2023/08/02 04:51:58;;;;;;;1999.90;999.90;;;15.10;99.90;;;;;;5047906;28;20395;-68
2023/08/02 04:54:24;;;;;;;1999.90;999.90;;;15.10;99.90;;;;;;5049584;28;20043;-68
2023/08/02 04:56:50;;;;;;;1999.90;999.90;;;15.20;99.90;;;;;;5049159;28;20436;-68
2023/08/02 04:59:15;;;;;;;1999.90;999.90;;;15.10;99.90;;;;;;5044335;28;20041;-68
2023/08/02 05:01:41;;;;;;;1999.90;999.90;;;15.10;99.90;;;;;;5050210;28;20036;-68
2023/08/02 05:04:08;;;;;;;1999.90;999.90;;;15.10;99.90;;;;;;5045857;28;20508;-68
2023/08/02 05:06:34;;;;;;;1999.90;999.90;;;15.10;99.90;;;;;;5048232;28;20444;-68
2023/08/02 05:09:04;;;;;;;1999.90;999.90;;;15.10;99.90;;;;;;5049172;28;20037;-68
2023/08/02 05:11:30;;;;;;;1999.90;999.90;;;15.10;99.90;;;;;;5047202;28;20049;-68
2023/08/02 05:13:56;;;;;;;1999.90;999.90;;;15.10;99.90;;;;;;5056659;28;20045;-68
2023/08/02 05:16:21;;;;;;;1999.90;999.90;;;15.10;99.90;;;;;;5048518;28;20052;-68
2023/08/02 05:18:47;;;;;;;1999.90;999.90;;;15.20;99.90;;;;;;5045250;28;20068;-68
2023/08/02 05:21:14;;;;;;;1999.90;999.90;;;15.20;99.90;;;;;;5048303;28;20051;-68
2023/08/02 05:23:40;;;;;;;1999.90;999.90;;;15.20;99.90;;;;;;5047799;28;20041;-68
2023/08/02 05:26:07;;;;;;;1999.90;999.90;;;15.30;99.90;;;;;;5047085;28;20059;-68
2023/08/02 05:28:33;;;;;;;1999.90;999.90;;;15.30;99.90;;;;;;5049972;28;20037;-68
2023/08/02 05:30:58;;;;;;;1999.90;999.90;;;15.30;99.90;;;;;;5048468;28;20086;-68
2023/08/02 05:33:24;;;;;;;1999.90;999.90;;;15.40;99.90;;;;;;5049934;28;20436;-68
2023/08/02 05:35:50;;;;;;;1999.90;999.90;;;15.40;99.90;;;;;;5048595;28;20143;-69
2023/08/02 05:38:15;;;;;;;1999.90;999.90;;;15.50;99.90;;;;;;5042370;28;20087;-68
2023/08/02 05:40:41;;;;;;;1999.90;999.90;;;15.50;99.90;;;;;;5044353;28;20094;-68
2023/08/02 05:43:06;;;;;;;1999.90;999.90;;;15.50;99.90;;;;;;5048062;28;20485;-68
2023/08/02 05:45:32;;;;;;;1999.90;999.90;;;15.60;99.90;;;;;;5049567;28;20060;-68
2023/08/02 05:47:58;;;;;;;1999.90;999.90;;;15.70;99.90;;;;;;5034513;28;20033;-68
2023/08/02 05:50:24;;;;;;;1999.90;999.90;;;15.70;99.90;;;;;;5040687;28;20041;-68
2023/08/02 05:52:50;;;;;;;1999.90;999.90;;;15.70;99.90;;;;;;5043120;28;20029;-68
2023/08/02 05:55:16;;;;;;;1999.90;999.90;;;15.70;99.90;;;;;;5047238;28;20116;-68
2023/08/02 05:57:41;;;;;;;1999.90;999.90;;;15.70;99.90;;;;;;5048376;28;20534;-68
2023/08/02 06:00:08;;;;;;;1999.90;999.90;;;15.80;99.90;;;;;;5047495;28;20041;-68
2023/08/02 06:02:35;;;;;;;1999.90;999.90;;;15.80;99.90;;;;;;5049355;28;20090;-68
2023/08/02 06:05:00;;;;;;;1999.90;999.90;;;15.80;99.90;;;;;;5048252;28;20041;-68
2023/08/02 06:07:26;;;;;;;1999.90;999.90;;;15.90;99.90;;;;;;5048908;28;20496;-68
2023/08/02 06:09:52;;;;;;;1999.90;999.90;;;16.00;99.90;;;;;;5036060;28;20406;-68
2023/08/02 06:12:17;;;;;;;1999.90;999.90;;;16.10;99.90;;;;;;5039910;28;20455;-68
2023/08/02 06:14:43;;;;;;;1999.90;999.90;;;16.20;99.90;;;;;;5024028;28;20494;-68
2023/08/02 06:17:08;;;;;;;1999.90;999.90;;;16.30;99.90;;;;;;5046587;28;20074;-68
2023/08/02 06:19:34;;;;;;;1999.90;999.90;;;16.30;99.90;;;;;;5040540;28;20061;-68
2023/08/02 06:21:59;;;;;;;1999.90;999.90;;;16.30;99.90;;;;;;5047501;28;20512;-68
2023/08/02 06:24:25;;;;;;;1999.90;999.90;;;16.40;99.90;;;;;;5048374;28;20065;-68
2023/08/02 06:26:51;;;;;;;1999.90;999.90;;;16.40;99.90;;;;;;5046235;28;20041;-68
2023/08/02 06:29:16;;;;;;;1999.90;999.90;;;16.40;99.90;;;;;;5046715;28;20048;-68
2023/08/02 06:31:42;;;;;;;1999.90;999.90;;;16.40;99.90;;;;;;5047592;28;20033;-69
2023/08/02 06:34:08;;;;;;;1999.90;999.90;;;16.40;99.90;;;;;;5048140;28;20045;-69
2023/08/02 06:36:34;;;;;;;1999.90;999.90;;;16.40;99.90;;;;;;5046012;28;20044;-69
2023/08/02 06:39:00;;;;;;;1999.90;999.90;;;16.50;99.90;;;;;;5037646;28;20060;-68
2023/08/02 06:41:25;;;;;;;1999.90;999.90;;;16.50;99.90;;;;;;5044171;28;20044;-68
2023/08/02 06:43:51;;;;;;;1999.90;999.90;;;16.60;99.90;;;;;;5057224;28;20091;-68
2023/08/02 06:46:16;;;;;;;1999.90;999.90;;;16.70;99.90;;;;;;5046024;28;20048;-68
2023/08/02 06:48:42;;;;;;;1999.90;999.90;;;16.80;99.90;;;;;;5058536;28;20033;-68
2023/08/02 06:51:14;;;;;;;1999.90;999.90;;;16.80;99.90;;;;;;5042689;28;20172;-68
2023/08/02 06:53:39;;;;;;;1999.90;999.90;;;16.80;99.90;;;;;;5041001;28;20033;-69
2023/08/02 06:56:16;;;;;;;1999.90;999.90;;;16.80;99.90;;;;;;5037752;28;20094;-68
2023/08/02 06:58:42;;;;;;;1999.90;999.90;;;16.90;99.90;;;;;;5047439;28;20032;-68
2023/08/02 07:01:15;;;;;;;1999.90;999.90;;;16.90;99.90;;;;;;5044502;28;20044;-68
2023/08/02 07:03:42;;;;;;;1999.90;999.90;;;17.00;99.90;;;;;;5041907;28;20037;-69
2023/08/02 07:06:11;;;;;;;1999.90;999.90;;;17.00;99.90;;;;;;5034338;28;20223;-68
2023/08/02 07:08:38;;;;;;;1999.90;999.90;;;17.10;99.90;;;;;;5047182;28;20049;-68
2023/08/02 07:11:04;;;;;;;1999.90;999.90;;;17.20;99.90;;;;;;5044916;28;20068;-68
2023/08/02 07:13:33;;;;;;;1999.90;999.90;;;17.20;99.90;;;;;;5040787;28;20037;-68
2023/08/02 07:15:59;;;;;;;1999.90;999.90;;;17.20;99.90;;;;;;5044048;28;20045;-68
2023/08/02 07:18:25;;;;;;;1999.90;999.90;;;17.20;99.90;;;;;;5046967;28;20558;-68
2023/08/02 07:20:51;;;;;;;1999.90;999.90;;;17.10;99.90;;;;;;5047684;28;20036;-68
2023/08/02 07:23:16;;;;;;;1999.90;999.90;;;17.10;99.90;;;;;;5042779;28;20136;-68
2023/08/02 07:25:42;;;;;;;1999.90;999.90;;;17.00;99.90;;;;;;5045061;28;20100;-68
2023/08/02 07:28:07;;;;;;;1999.90;999.90;;;17.00;99.90;;;;;;5046921;28;20055;-68
2023/08/02 07:30:33;;;;;;;1999.90;999.90;;;16.90;99.90;;;;;;5046729;28;20034;-68
2023/08/02 07:32:59;;;;;;;1999.90;999.90;;;16.90;99.90;;;;;;5046486;28;20098;-68
2023/08/02 07:35:24;;;;;;;1999.90;999.90;;;16.80;99.90;;;;;;5039666;28;20616;-68
2023/08/02 07:37:50;;;;;;;1999.90;999.90;;;16.80;99.90;;;;;;5046073;28;20048;-68
2023/08/02 07:40:16;;;;;;;1999.90;999.90;;;16.80;99.90;;;;;;5044238;28;20041;-68
2023/08/02 07:42:41;;;;;;;1999.90;999.90;;;16.70;99.90;;;;;;5042591;28;20480;-68
2023/08/02 07:45:09;;;;;;;1999.90;999.90;;;16.70;99.90;;;;;;5045468;28;20078;-68
2023/08/02 07:47:35;;;;;;;1999.90;999.90;;;16.60;99.90;;;;;;5046649;28;20053;-68
2023/08/02 07:50:01;;;;;;;1999.90;999.90;;;16.60;99.90;;;;;;5047797;28;20453;-69
2023/08/02 07:52:27;;;;;;;1999.90;999.90;;;16.60;99.90;;;;;;5046447;28;20400;-68
2023/08/02 07:54:53;;;;;;;1999.90;999.90;;;16.60;99.90;;;;;;5044445;28;20033;-68
2023/08/02 07:57:25;;;;;;;1999.90;999.90;;;16.50;99.90;;;;;;5046023;28;20147;-68
2023/08/02 07:59:51;;;;;;;1999.90;999.90;;;16.40;99.90;;;;;;5042842;28;20033;-68
2023/08/02 08:02:16;;;;;;;1999.90;999.90;;;16.40;99.90;;;;;;5046758;28;20047;-68
2023/08/02 08:04:42;;;;;;;1999.90;999.90;;;16.30;99.90;;;;;;5038975;28;20041;-68
2023/08/02 08:07:07;;;;;;;1999.90;999.90;;;16.30;99.90;;;;;;5045792;28;20513;-68
2023/08/02 08:09:34;;;;;;;1999.90;999.90;;;16.30;99.90;;;;;;5048489;28;20489;-68
2023/08/02 08:12:03;;;;;;;1999.90;999.90;;;16.30;99.90;;;;;;5039933;28;20045;-68
2023/08/02 08:14:31;;;;;;;1999.90;999.90;;;16.20;99.90;;;;;;5041642;28;20535;-67
2023/08/02 08:16:58;;;;;;;1999.90;999.90;;;16.20;99.90;;;;;;5016849;28;20055;-67
2023/08/02 08:19:24;;;;;;;1999.90;999.90;;;16.10;99.90;;;;;;5036140;28;20049;-68
2023/08/02 08:21:50;;;;;;;1999.90;999.90;;;16.10;99.90;;;;;;5049936;28;20466;-67
2023/08/02 08:24:16;;;;;;;1999.90;999.90;;;16.00;99.90;;;;;;5050539;28;20068;-67
2023/08/02 08:26:41;;;;;;;1999.90;999.90;;;16.00;99.90;;;;;;5046961;28;20037;-67
2023/08/02 08:29:07;;;;;;;1999.90;999.90;;;15.90;99.90;;;;;;5037396;28;20221;-67
2023/08/02 08:31:33;;;;;;;1999.90;999.90;;;15.90;99.90;;;;;;5036506;28;20072;-67
2023/08/02 08:33:58;;;;;;;1999.90;999.90;;;15.80;99.90;;;;;;5049409;28;20041;-67
2023/08/02 08:36:26;;;;;;;1999.90;999.90;;;15.80;99.90;;;;;;5050195;28;20040;-66
2023/08/02 08:38:52;;;;;;;1999.90;999.90;;;15.70;99.90;;;;;;5047222;28;20413;-67
2023/08/02 08:41:18;;;;;;;1999.90;999.90;;;15.60;99.90;;;;;;5048292;28;20110;-66
2023/08/02 08:43:44;;;;;;;1999.90;999.90;;;15.60;99.90;;;;;;5048419;28;20124;-66
2023/08/02 08:46:13;;;;;;;1999.90;999.90;;;15.50;99.90;;;;;;5049371;28;20068;-67
2023/08/02 08:48:38;;;;;;;1999.90;999.90;;;15.40;99.90;;;;;;5043312;28;20117;-67
2023/08/02 08:51:05;;;;;;;1999.90;999.90;;;15.40;99.90;;;;;;5048794;28;20148;-66
2023/08/02 08:53:35;;;;;;;1999.90;999.90;;;15.30;99.90;;;;;;5044314;28;20041;-67
2023/08/02 08:56:03;;;;;;;1999.90;999.90;;;15.30;99.90;;;;;;5045865;28;20439;-67
2023/08/02 08:58:33;;;;;;;1999.90;999.90;;;15.30;99.90;;;;;;5044956;28;20044;-67
2023/08/02 09:00:58;;;;;;;1999.90;999.90;;;15.30;99.90;;;;;;5045572;28;20374;-67
2023/08/02 09:03:24;;;;;;;1999.90;999.90;;;15.30;99.90;;;;;;5023341;28;20049;-67
2023/08/02 09:05:51;;;;;;;1999.90;999.90;;;15.30;99.90;;;;;;5041944;28;20393;-67
2023/08/02 09:08:17;;;;;;;1999.90;999.90;;;15.30;99.90;;;;;;5037714;28;20500;-67
2023/08/02 09:10:43;;;;;;;1999.90;999.90;;;15.30;99.90;;;;;;5040148;28;20063;-67
2023/08/02 09:13:21;;;;;;;1999.90;999.90;;;15.40;99.90;;;;;;5044784;28;20646;-67
2023/08/02 09:16:05;;;;;;;1999.90;999.90;;;15.50;99.90;;;;;;5038867;28;20037;-67
2023/08/02 09:18:45;;;;;;;1999.90;999.90;;;15.60;99.90;;;;;;5040935;28;20051;-67
2023/08/02 09:21:24;;;;;;;1999.90;999.90;;;15.60;99.90;;;;;;5047121;28;20045;-67
2023/08/02 09:24:00;;;;;;;1999.90;999.90;;;15.70;99.90;;;;;;5042494;28;20044;-67
2023/08/02 09:26:26;;;;;;;1999.90;999.90;;;15.70;99.90;;;;;;5043045;28;20098;-67
2023/08/02 09:28:59;;;;;;;1999.90;999.90;;;15.70;99.90;;;;;;5040252;28;20115;-67
2023/08/02 09:31:25;;;;;;;1999.90;999.90;;;15.70;99.90;;;;;;5039074;28;20482;-67
2023/08/02 09:33:53;;;;;;;1999.90;999.90;;;15.70;99.90;;;;;;5041487;28;20046;-67
2023/08/02 09:36:30;;;;;;;1999.90;999.90;;;15.70;99.90;;;;;;5043924;28;20394;-67
2023/08/02 09:39:14;;;;;;;1999.90;999.90;;;15.70;99.90;;;;;;5034658;28;20048;-67
2023/08/02 09:41:40;;;;;;;1999.90;999.90;;;15.70;99.90;;;;;;5030012;28;20069;-67
2023/08/02 09:44:06;;;;;;;1999.90;999.90;;;15.70;99.90;;;;;;5047010;28;20487;-66
2023/08/02 09:46:34;;;;;;;1999.90;999.90;;;15.80;99.90;;;;;;5040817;28;20052;-67
2023/08/02 09:49:04;;;;;;;1999.90;999.90;;;15.90;99.90;;;;;;5045086;28;20041;-67
2023/08/02 09:51:40;;;;;;;1999.90;999.90;;;16.10;99.90;;;;;;5040676;28;20049;-67
2023/08/02 09:54:07;;;;;;;1999.90;999.90;;;16.20;99.90;;;;;;5037367;28;20152;-66
2023/08/02 09:56:38;;;;;;;1999.90;999.90;;;16.20;99.90;;;;;;5040147;28;20271;-67
2023/08/02 09:59:05;;;;;;;1999.90;999.90;;;16.20;99.90;;;;;;5027936;28;20156;-67
2023/08/02 10:01:32;;;;;;;1999.90;999.90;;;16.10;99.90;;;;;;5045361;28;20072;-67
2023/08/02 10:03:59;;;;;;;1999.90;999.90;;;16.20;99.90;;;;;;5032792;28;20061;-67
2023/08/02 10:06:32;;;;;;;1999.90;999.90;;;16.20;99.90;;;;;;5038296;28;20107;-67
2023/08/02 10:09:05;;;;;;;1999.90;999.90;;;16.10;99.90;;;;;;5022064;28;20049;-67
2023/08/02 10:11:41;;;;;;;1999.90;999.90;;;16.00;99.90;;;;;;5040589;28;20037;-67
2023/08/02 10:14:09;;;;;;;1999.90;999.90;;;16.00;99.90;;;;;;5046202;28;20433;-67
2023/08/02 10:16:37;;;;;;;1999.90;999.90;;;16.00;99.90;;;;;;5037813;28;20076;-67
2023/08/02 10:19:03;;;;;;;1999.90;999.90;;;15.90;99.90;;;;;;5040612;28;20167;-67
2023/08/02 10:21:33;;;;;;;1999.90;999.90;;;15.90;99.90;;;;;;5044274;28;20144;-68
2023/08/02 10:24:00;;;;;;;1999.90;999.90;;;15.90;99.90;;;;;;5044260;28;20056;-67
2023/08/02 10:26:29;;;;;;;1999.90;999.90;;;15.90;99.90;;;;;;5043249;28;20051;-67
2023/08/02 10:28:57;;;;;;;1999.90;999.90;;;15.90;99.90;;;;;;5036160;28;20322;-68
2023/08/02 10:31:23;;;;;;;1999.90;999.90;;;15.90;99.90;;;;;;5040673;28;20045;-67
2023/08/02 10:33:52;;;;;;;1999.90;999.90;;;15.80;99.90;;;;;;5042735;28;20041;-67
2023/08/02 10:36:17;;;;;;;1999.90;999.90;;;15.90;99.90;;;;;;5038704;28;20421;-67
2023/08/02 10:38:43;;;;;;;1999.90;999.90;;;15.90;99.90;;;;;;5045184;28;20033;-67
2023/08/02 10:41:18;;;;;;;1999.90;999.90;;;16.00;99.90;;;;;;5044498;28;20683;-67
2023/08/02 10:43:57;;;;;;;1999.90;999.90;;;16.00;99.90;;;;;;5040264;28;20044;-68
2023/08/02 10:46:28;;;;;;;1999.90;999.90;;;16.10;99.90;;;;;;5045415;28;20051;-68
2023/08/02 10:48:55;;;;;;;1999.90;999.90;;;16.10;99.90;;;;;;5036610;28;20041;-67
2023/08/02 10:51:30;;;;;;;1999.90;999.90;;;16.20;99.90;;;;;;5040202;28;20120;-67
2023/08/02 10:54:15;;;;;;;;;;;16.30;99.90;;;;;;5010105;28;20060;-67
2023/08/02 10:56:53;;;;;;;1999.90;999.90;;;16.30;99.90;;;;;;5033793;28;19921;-67
2023/08/02 10:59:25;;;;;;;1999.90;999.90;;;16.40;99.90;;;;;;5036783;28;20160;-68
2023/08/02 11:02:00;;;;;;;1999.90;999.90;;;16.40;99.90;;;;;;5023695;28;20044;-67
2023/08/02 11:04:28;;;;;;;1999.90;999.90;;;16.40;99.90;;;;;;5045113;28;20143;-67
2023/08/02 11:06:54;;;;;;;1999.90;999.90;;;16.50;99.90;;;;;;5040203;28;20492;-67
2023/08/02 11:09:33;;;;;;;1999.90;999.90;;;16.60;99.90;;;;;;5038516;28;20052;-67
2023/08/02 11:12:17;;;;;;;;;;;16.70;99.90;;;;;;5031945;28;20150;-67
2023/08/02 11:14:51;;;;;;;1999.90;999.90;;;16.70;99.90;;;;;;5038675;28;19924;-67
2023/08/02 11:17:20;;;;;;;1999.90;999.90;;;16.60;99.90;;;;;;5043193;28;20533;-68
2023/08/02 11:19:50;;;;;;;1999.90;999.90;;;16.50;99.90;;;;;;5040269;28;20491;-68
2023/08/02 11:22:17;;;;;;;1999.90;999.90;;;16.50;99.90;;;;;;5019555;28;20052;-68
2023/08/02 11:24:50;;;;;;;1999.90;999.90;;;16.40;99.90;;;;;;5039236;28;20045;-67
2023/08/02 11:27:24;;;;;;;1999.90;999.90;;;16.40;99.90;;;;;;5034974;28;20045;-67
2023/08/02 11:30:07;;;;;;;1999.90;999.90;;;16.50;99.90;;;;;;5041018;28;20033;-67
2023/08/02 11:32:43;;;;;;;1999.90;999.90;;;16.50;99.90;;;;;;5042566;28;20049;-67
2023/08/02 11:35:15;;;;;;;1999.90;999.90;;;16.80;99.90;;;;;;5039056;28;20055;-67
2023/08/02 11:37:41;;;;;;;1999.90;999.90;;;16.90;99.90;;;;;;5038971;28;20037;-67
2023/08/02 11:40:07;;;;;;;1999.90;999.90;;;17.00;99.90;;;;;;5020295;28;20118;-67
2023/08/02 11:42:44;;;;;;;1999.90;999.90;;;17.10;99.90;;;;;;5042097;28;20396;-67
2023/08/02 11:45:09;;;;;;;1999.90;999.90;;;17.20;99.90;;;;;;5040528;28;20086;-68
2023/08/02 11:47:36;;;;;;;1999.90;999.90;;;17.20;99.90;;;;;;5041057;28;20040;-67
2023/08/02 11:50:01;;;;;;;1999.90;999.90;;;17.20;99.90;;;;;;5042927;28;20465;-68
2023/08/02 11:52:32;;;;;;;1999.90;999.90;;;17.20;99.90;;;;;;5041716;28;20541;-68
2023/08/02 11:54:58;;;;;;;1999.90;999.90;;;17.10;99.90;;;;;;5056089;28;20570;-67
2023/08/02 11:57:25;;;;;;;1999.90;999.90;;;17.20;99.90;;;;;;5007545;28;20052;-67
2023/08/02 11:59:56;;;;;;;1999.90;999.90;;;17.30;99.90;;;;;;5043785;28;20037;-68
2023/08/02 12:02:22;;;;;;;1999.90;999.90;;;17.40;99.90;;;;;;5042840;28;20041;-68